Time;durP1;ratioP1;P1;durP2;ratioP2;P2;SDS_P1;SDS_P2;PMS_P1;PMS_P2;Temp;Humidity;BMP_temperature;BMP_pressure;BME280_temperature;BME280_humidity;BME280_pressure;Samples;Min_cycle;Max_cycle;Signal;HPM_P1;HPM_P2
2023/11/21 00:01:39;;;;;;;8.50;4.93;;;;;;;6.85;100.00;100300.25;5098896;28;20203;-66
2023/11/21 00:04:08;;;;;;;4.40;3.85;;;;;;;6.83;100.00;100302.31;5087871;28;20219;-67
2023/11/21 00:06:37;;;;;;;9.00;4.18;;;;;;;6.78;100.00;100302.03;5088697;28;20692;-66
2023/11/21 00:09:08;;;;;;;5.10;4.30;;;;;;;6.70;100.00;100300.31;5087119;28;20199;-66
2023/11/21 00:11:37;;;;;;;12.23;6.00;;;;;;;6.59;100.00;100306.19;5097194;28;20183;-67
2023/11/21 00:14:08;;;;;;;10.57;5.07;;;;;;;6.55;100.00;100305.75;5092355;28;20219;-66
2023/11/21 00:16:37;;;;;;;9.65;6.63;;;;;;;6.54;100.00;100314.84;5092978;28;20658;-67
2023/11/21 00:19:06;;;;;;;8.93;5.97;;;;;;;6.49;100.00;100316.41;5084817;28;20531;-67
2023/11/21 00:21:35;;;;;;;12.65;5.53;;;;;;;6.40;100.00;100321.09;5095997;28;20202;-67
2023/11/21 00:24:04;;;;;;;8.18;5.40;;;;;;;6.35;100.00;100315.44;5092586;28;20218;-67
2023/11/21 00:26:37;;;;;;;10.63;5.25;;;;;;;6.31;100.00;100327.59;5096730;28;20622;-65
2023/11/21 00:29:08;;;;;;;8.63;5.28;;;;;;;6.27;100.00;100325.47;5098427;28;20287;-67
2023/11/21 00:31:37;;;;;;;15.50;6.43;;;;;;;6.20;100.00;100333.44;5096552;28;20214;-67
2023/11/21 00:34:07;;;;;;;11.80;6.25;;;;;;;6.23;100.00;100333.09;5086624;28;20215;-67
2023/11/21 00:36:35;;;;;;;22.45;9.07;;;;;;;6.24;100.00;100339.28;5077951;28;20210;-67
2023/11/21 00:39:05;;;;;;;11.82;5.72;;;;;;;6.17;100.00;100333.81;5074146;28;20237;-68
2023/11/21 00:41:36;;;;;;;8.75;4.80;;;;;;;6.16;100.00;100342.91;5092243;28;20230;-67
2023/11/21 00:44:07;;;;;;;11.07;5.38;;;;;;;6.19;100.00;100342.53;5074207;28;20231;-67
2023/11/21 00:46:36;;;;;;;19.10;9.20;;;;;;;6.15;100.00;100351.16;5092339;28;20297;-65
2023/11/21 00:49:05;;;;;;;14.13;7.57;;;;;;;6.14;100.00;100350.34;5074178;28;20614;-68
2023/11/21 00:51:35;;;;;;;20.70;7.38;;;;;;;6.18;100.00;100345.41;5090114;28;20214;-66
2023/11/21 00:54:05;;;;;;;15.52;6.85;;;;;;;6.15;100.00;100351.97;5085039;28;20215;-67
2023/11/21 00:56:37;;;;;;;14.38;6.63;;;;;;;6.14;100.00;100360.25;5088240;28;20242;-68
2023/11/21 00:59:08;;;;;;;16.25;7.90;;;;;;;6.21;100.00;100355.78;5092420;28;20187;-69
2023/11/21 01:01:37;;;;;;;16.65;8.00;;;;;;;6.17;100.00;100360.69;5092967;28;20211;-69
2023/11/21 01:04:07;;;;;;;22.55;9.68;;;;;;;6.20;100.00;100351.41;5069735;28;20243;-67
2023/11/21 01:06:36;;;;;;;13.43;9.38;;;;;;;6.19;100.00;100355.97;5093485;28;20215;-66
2023/11/21 01:09:08;;;;;;;13.23;6.97;;;;;;;6.19;100.00;100358.66;5074017;28;20253;-66
2023/11/21 01:11:37;;;;;;;18.52;8.45;;;;;;;6.31;100.00;100359.00;5104015;28;20207;-67
2023/11/21 01:14:08;;;;;;;22.00;7.25;;;;;;;6.25;100.00;100363.25;5076353;28;20305;-67
2023/11/21 01:16:37;;;;;;;22.15;7.65;;;;;;;6.21;100.00;100374.56;5075771;28;20202;-67
2023/11/21 01:19:06;;;;;;;20.58;8.63;;;;;;;6.16;100.00;100382.34;5093771;28;20530;-67
2023/11/21 01:21:36;;;;;;;26.08;7.70;;;;;;;6.08;100.00;100377.94;5079986;28;20203;-67
2023/11/21 01:24:07;;;;;;;15.93;8.23;;;;;;;6.08;100.00;100378.75;5095613;28;20250;-68
2023/11/21 01:26:36;;;;;;;20.50;5.95;;;;;;;6.07;100.00;100392.38;5084884;28;20218;-67
2023/11/21 01:29:06;;;;;;;15.85;8.20;;;;;;;5.96;100.00;100390.13;5077677;28;20199;-68
2023/11/21 01:31:35;;;;;;;12.15;7.15;;;;;;;5.95;100.00;100392.00;5095628;28;20199;-67
2023/11/21 01:34:04;;;;;;;18.27;6.78;;;;;;;6.00;100.00;100402.19;5095823;28;20226;-67
2023/11/21 01:36:35;;;;;;;10.30;5.28;;;;;;;6.02;100.00;100395.63;5092478;28;20196;-67
2023/11/21 01:39:08;;;;;;;19.27;7.25;;;;;;;5.95;100.00;100399.22;5108857;27;20559;-67
2023/11/21 01:41:37;;;;;;;16.40;6.55;;;;;;;5.84;100.00;100400.47;5091786;28;20206;-66
2023/11/21 01:44:09;;;;;;;17.17;5.75;;;;;;;5.84;100.00;100400.47;5098952;28;20253;-67
2023/11/21 01:46:39;;;;;;;12.70;6.35;;;;;;;5.93;100.00;100402.09;5095151;28;20241;-68
2023/11/21 01:49:09;;;;;;;14.07;6.30;;;;;;;5.89;100.00;100406.16;5094718;28;20198;-67
2023/11/21 01:51:38;;;;;;;10.63;5.35;;;;;;;5.83;100.00;100406.03;5095388;28;20229;-67
2023/11/21 01:54:07;;;;;;;12.63;4.40;;;;;;;5.89;100.00;100408.03;5118418;27;20220;-66
2023/11/21 01:56:46;;;;;;;11.30;5.38;;;;;;;5.79;100.00;100410.94;5099219;28;20398;-66
2023/11/21 01:59:21;;;;;;;15.20;4.43;;;;;;;5.79;100.00;100413.63;5077344;28;20195;-66
2023/11/21 02:01:51;;;;;;;12.80;7.70;;;;;;;5.78;100.00;100422.69;5108452;28;20298;-67
2023/11/21 02:04:20;;;;;;;7.78;5.00;;;;;;;5.74;100.00;100423.22;5086464;28;20334;-65
2023/11/21 02:06:50;;;;;;;9.20;5.03;;;;;;;5.69;100.00;100421.94;5079344;28;20707;-67
2023/11/21 02:09:26;;;;;;;12.77;6.03;;;;;;;5.74;100.00;100429.44;5095641;28;20576;-67
2023/11/21 02:11:55;;;;;;;7.85;4.63;;;;;;;5.73;100.00;100426.94;5094801;28;20562;-67
2023/11/21 02:14:29;;;;;;;11.43;5.43;;;;;;;5.74;100.00;100433.97;5076089;28;20301;-67
2023/11/21 02:16:58;;;;;;;7.80;4.07;;;;;;;5.72;100.00;100428.78;5089695;28;20270;-66
2023/11/21 02:19:29;;;;;;;7.00;4.03;;;;;;;5.68;100.00;100440.91;5095897;28;20653;-66
2023/11/21 02:22:03;;;;;;;6.15;3.20;;;;;;;5.66;100.00;100426.84;5068484;28;20206;-66
2023/11/21 02:24:33;;;;;;;7.30;4.05;;;;;;;5.62;100.00;100437.09;5077738;28;20216;-66
2023/11/21 02:27:02;;;;;;;6.80;2.30;;;;;;;5.60;100.00;100433.78;5067140;28;20580;-67
2023/11/21 02:29:31;;;;;;;8.00;3.50;;;;;;;5.63;100.00;100438.75;5091329;28;20187;-67
2023/11/21 02:32:00;;;;;;;6.55;3.78;;;;;;;5.64;100.00;100435.06;5072248;28;20665;-66
2023/11/21 02:34:29;;;;;;;7.60;3.25;;;;;;;5.71;100.00;100442.41;5092340;28;20207;-66
2023/11/21 02:36:58;;;;;;;6.35;3.00;;;;;;;5.68;100.00;100440.91;5075866;28;20680;-66
2023/11/21 02:39:53;;;;;;;6.68;3.45;;;;;;;5.69;100.00;100442.56;5092108;28;20553;-68
2023/11/21 02:42:22;;;;;;;12.10;5.38;;;;;;;5.74;100.00;100444.72;5116979;27;20203;-66
2023/11/21 02:44:51;;;;;;;6.13;4.20;;;;;;;5.68;100.00;100449.78;5094185;28;20211;-66
2023/11/21 02:47:19;;;;;;;3.63;1.95;;;;;;;5.69;100.00;100443.41;5074145;28;20211;-67
2023/11/21 02:49:49;;;;;;;4.97;3.83;;;;;;;5.61;100.00;100448.88;5091425;28;20194;-67
2023/11/21 02:52:18;;;;;;;6.45;4.45;;;;;;;5.65;100.00;100450.16;5076950;28;20195;-67
2023/11/21 02:54:48;;;;;;;11.30;4.88;;;;;;;5.66;100.00;100451.81;5092523;28;20273;-67
2023/11/21 02:57:19;;;;;;;6.47;4.55;;;;;;;5.66;100.00;100449.13;5102837;28;20197;-67
2023/11/21 02:59:48;;;;;;;8.05;2.88;;;;;;;5.65;100.00;100455.53;5069364;28;20297;-67
2023/11/21 03:02:17;;;;;;;5.45;3.05;;;;;;;5.60;100.00;100444.50;5070528;28;20201;-67
2023/11/21 03:04:48;;;;;;;7.00;4.28;;;;;;;5.61;100.00;100462.28;5094600;28;20215;-67
2023/11/21 03:07:17;;;;;;;4.95;4.43;;;;;;;5.64;100.00;100459.22;5076958;28;20197;-66
2023/11/21 03:09:47;;;;;;;6.53;3.13;;;;;;;5.61;100.00;100459.59;5094117;28;20196;-66
2023/11/21 03:12:18;;;;;;;7.13;4.68;;;;;;;5.64;100.00;100467.28;5077289;28;20574;-67
2023/11/21 03:14:47;;;;;;;8.93;4.07;;;;;;;5.74;100.00;100466.19;5094320;28;20206;-67
2023/11/21 03:17:16;;;;;;;5.45;3.65;;;;;;;5.72;100.00;100470.91;5096869;28;20215;-66
2023/11/21 03:19:46;;;;;;;8.20;3.88;;;;;;;5.68;100.00;100468.59;5093538;28;20643;-66
2023/11/21 03:22:14;;;;;;;7.75;3.63;;;;;;;5.64;100.00;100467.28;5076761;28;20229;-66
2023/11/21 03:24:43;;;;;;;4.35;3.38;;;;;;;5.63;100.00;100470.97;5094093;28;20294;-66
2023/11/21 03:27:12;;;;;;;6.88;3.97;;;;;;;5.65;100.00;100485.06;5090022;28;20188;-66
2023/11/21 03:29:46;;;;;;;7.25;4.50;;;;;;;5.56;100.00;100494.19;5089206;28;20217;-66
2023/11/21 03:32:15;;;;;;;6.53;4.03;;;;;;;5.47;100.00;100489.88;5092643;28;20654;-68
2023/11/21 03:34:57;;;;;;;5.53;3.05;;;;;;;5.57;100.00;100503.91;5102268;28;20214;-66
2023/11/21 03:37:27;;;;;;;4.50;2.50;;;;;;;5.51;100.00;100499.28;5083646;28;20255;-67
2023/11/21 03:39:57;;;;;;;6.22;3.35;;;;;;;5.49;100.00;100506.66;5104418;28;20218;-67
2023/11/21 03:42:26;;;;;;;6.85;3.38;;;;;;;5.47;100.00;100503.28;5097548;28;20191;-66
2023/11/21 03:44:57;;;;;;;7.25;4.10;;;;;;;5.53;100.00;100512.50;5094575;28;20678;-67
2023/11/21 03:47:29;;;;;;;5.15;3.35;;;;;;;5.43;100.00;100512.72;5097833;28;20202;-67
2023/11/21 03:49:58;;;;;;;6.80;5.40;;;;;;;5.43;100.00;100515.41;5107914;28;20199;-66
2023/11/21 03:52:28;;;;;;;9.55;4.03;;;;;;;5.46;100.00;100515.06;5093508;28;20244;-66
2023/11/21 03:54:57;;;;;;;9.68;4.18;;;;;;;5.45;100.00;100512.56;5089654;28;20214;-66
2023/11/21 03:57:27;;;;;;;4.75;3.38;;;;;;;5.50;100.00;100516.38;5092738;28;20520;-67
2023/11/21 03:59:57;;;;;;;12.93;3.70;;;;;;;5.52;100.00;100519.69;5093464;28;20187;-68
2023/11/21 04:02:28;;;;;;;7.97;3.60;;;;;;;5.50;100.00;100519.06;5097388;28;20206;-67
2023/11/21 04:04:57;;;;;;;5.45;3.30;;;;;;;5.58;100.00;100527.03;5086062;28;20219;-66
2023/11/21 04:07:25;;;;;;;5.68;3.08;;;;;;;5.57;100.00;100528.06;5091732;28;20218;-67
2023/11/21 04:09:54;;;;;;;4.70;3.63;;;;;;;5.46;100.00;100528.50;5093116;28;20184;-67
2023/11/21 04:12:23;;;;;;;6.90;3.70;;;;;;;5.46;100.00;100533.84;5098893;28;20191;-66
2023/11/21 04:14:52;;;;;;;5.93;3.53;;;;;;;5.43;100.00;100534.19;5096919;28;20206;-66
2023/11/21 04:17:25;;;;;;;7.57;2.83;;;;;;;5.48;100.00;100539.84;5087306;28;20191;-67
2023/11/21 04:19:54;;;;;;;9.68;4.88;;;;;;;5.52;100.00;100548.38;5092434;28;20191;-67
2023/11/21 04:22:23;;;;;;;5.78;2.67;;;;;;;5.52;100.00;100543.84;5092409;28;20175;-67
2023/11/21 04:25:47;;;;;;;4.38;3.60;;;;;;;5.47;100.00;100550.78;5095588;28;20294;-66
2023/11/21 04:28:16;;;;;;;4.03;3.40;;;;;;;5.45;100.00;100542.06;5099493;28;20191;-67
2023/11/21 04:30:45;;;;;;;7.35;4.57;;;;;;;5.44;100.00;100551.97;5092809;28;20191;-67
2023/11/21 04:33:15;;;;;;;6.55;2.97;;;;;;;5.47;100.00;100556.97;5093131;28;20199;-67
2023/11/21 04:35:45;;;;;;;8.65;4.55;;;;;;;5.46;100.00;100558.00;5093752;28;20199;-67
2023/11/21 04:38:13;;;;;;;6.57;4.28;;;;;;;5.42;100.00;100559.34;5087563;28;20191;-67
2023/11/21 04:40:42;;;;;;;8.57;4.55;;;;;;;5.52;100.00;100559.13;5084095;28;20610;-67
2023/11/21 04:43:12;;;;;;;6.15;3.55;;;;;;;5.48;100.00;100572.06;5079204;28;20615;-66
2023/11/21 04:45:41;;;;;;;6.15;3.22;;;;;;;5.43;100.00;100563.72;5080716;28;20187;-66
2023/11/21 04:48:10;;;;;;;6.15;2.65;;;;;;;5.43;100.00;100569.06;5093296;28;20191;-67
2023/11/21 04:50:40;;;;;;;5.90;3.85;;;;;;;5.38;100.00;100579.50;5103612;28;20298;-67
2023/11/21 04:53:09;;;;;;;5.22;3.08;;;;;;;5.41;100.00;100578.34;5095587;28;20195;-67
2023/11/21 04:55:38;;;;;;;6.38;3.00;;;;;;;5.51;100.00;100578.94;5091236;28;20183;-66
2023/11/21 04:58:08;;;;;;;9.02;2.97;;;;;;;5.44;100.00;100573.44;5094894;28;20225;-67
2023/11/21 05:00:37;;;;;;;3.60;3.25;;;;;;;5.36;100.00;100575.34;5099666;28;20188;-67
2023/11/21 05:03:06;;;;;;;7.22;3.38;;;;;;;5.37;100.00;100577.84;5094375;28;20246;-66
2023/11/21 05:05:36;;;;;;;4.80;3.90;;;;;;;5.32;100.00;100585.59;5095947;28;20200;-66
2023/11/21 05:08:06;;;;;;;3.10;2.72;;;;;;;5.31;100.00;100594.66;5095871;28;20229;-67
2023/11/21 05:10:38;;;;;;;9.35;3.53;;;;;;;5.24;100.00;100590.97;5095868;28;20215;-66
2023/11/21 05:13:09;;;;;;;7.10;3.30;;;;;;;5.20;100.00;100592.34;5095773;28;20191;-67
2023/11/21 05:15:39;;;;;;;5.07;2.63;;;;;;;5.22;100.00;100593.84;5103492;28;20183;-66
2023/11/21 05:18:08;;;;;;;5.90;2.67;;;;;;;5.19;100.00;100610.28;5097797;28;20191;-67
2023/11/21 05:20:38;;;;;;;3.65;2.25;;;;;;;5.25;100.00;100617.66;5090440;28;20691;-67
2023/11/21 05:23:08;;;;;;;8.65;4.75;;;;;;;5.28;100.00;100611.06;5095683;28;20194;-67
2023/11/21 05:25:37;;;;;;;8.40;5.22;;;;;;;5.24;100.00;100609.75;5095659;28;20673;-68
2023/11/21 05:28:09;;;;;;;5.90;3.80;;;;;;;5.22;100.00;100618.00;5113176;27;20225;-67
2023/11/21 05:30:38;;;;;;;4.55;3.25;;;;;;;5.25;100.00;100614.97;5091905;28;20254;-67
2023/11/21 05:33:07;;;;;;;6.47;3.10;;;;;;;5.18;100.00;100613.16;5095518;28;20187;-68
2023/11/21 05:35:37;;;;;;;6.80;3.58;;;;;;;5.06;100.00;100615.38;5090704;28;20254;-66
2023/11/21 05:38:07;;;;;;;7.78;3.70;;;;;;;5.07;100.00;100626.94;5111396;28;20199;-67
2023/11/21 05:40:36;;;;;;;4.63;2.10;;;;;;;5.07;100.00;100629.63;5105687;28;20568;-68
2023/11/21 05:43:06;;;;;;;7.72;3.92;;;;;;;5.07;100.00;100632.31;5102490;28;20186;-66
2023/11/21 05:45:35;;;;;;;5.95;2.72;;;;;;;5.11;100.00;100636.31;5090694;28;20208;-67
2023/11/21 05:48:03;;;;;;;5.38;2.35;;;;;;;5.05;100.00;100637.84;5088043;28;20191;-67
2023/11/21 05:50:33;;;;;;;6.65;3.97;;;;;;;5.04;100.00;100638.84;5105912;28;20187;-66
2023/11/21 05:53:02;;;;;;;4.50;2.42;;;;;;;4.99;100.00;100645.72;5099989;28;20195;-66
2023/11/21 05:55:32;;;;;;;5.38;3.33;;;;;;;4.99;100.00;100651.09;5096924;28;20646;-67
2023/11/21 05:58:00;;;;;;;5.85;3.65;;;;;;;5.03;100.00;100655.97;5106921;28;20206;-67
2023/11/21 06:00:29;;;;;;;3.13;2.22;;;;;;;4.94;100.00;100653.47;5119476;28;20191;-69
2023/11/21 06:02:58;;;;;;;3.42;2.42;;;;;;;4.93;100.00;100660.69;5102305;28;20249;-66
2023/11/21 06:05:28;;;;;;;6.63;2.60;;;;;;;4.95;100.00;100657.81;5097621;28;20203;-67
2023/11/21 06:07:58;;;;;;;3.42;3.13;;;;;;;4.97;100.00;100661.16;5097625;28;20240;-68
2023/11/21 06:10:28;;;;;;;4.30;2.28;;;;;;;4.89;100.00;100670.03;5105704;28;20199;-68
2023/11/21 06:12:59;;;;;;;6.93;3.20;;;;;;;4.85;100.00;100674.09;5109921;28;20190;-66
2023/11/21 06:15:32;;;;;;;2.67;2.47;;;;;;;4.84;100.00;100676.94;5102261;28;20222;-66
2023/11/21 06:18:01;;;;;;;3.45;1.70;;;;;;;4.84;100.00;100688.53;5096292;28;20286;-67
2023/11/21 06:20:30;;;;;;;3.88;2.10;;;;;;;4.84;100.00;100683.16;5089832;28;20556;-67
2023/11/21 06:23:03;;;;;;;2.53;2.17;;;;;;;4.81;100.00;100689.69;5090922;28;20207;-66
2023/11/21 06:25:33;;;;;;;5.38;3.35;;;;;;;4.81;100.00;100688.84;5105606;28;20206;-67
2023/11/21 06:28:03;;;;;;;5.68;3.60;;;;;;;4.87;100.00;100700.72;5103542;28;20190;-67
2023/11/21 06:30:32;;;;;;;5.95;2.13;;;;;;;4.81;100.00;100700.41;5097425;28;20219;-68
2023/11/21 06:33:02;;;;;;;2.85;2.40;;;;;;;4.82;100.00;100710.13;5075097;28;20289;-66
2023/11/21 06:35:33;;;;;;;3.55;1.67;;;;;;;4.82;100.00;100718.16;5097839;28;20246;-66
2023/11/21 06:38:02;;;;;;;3.13;1.58;;;;;;;4.84;100.00;100719.84;5090329;28;20538;-66
2023/11/21 06:40:33;;;;;;;3.53;1.95;;;;;;;4.78;100.00;100722.19;5105956;28;20241;-67
2023/11/21 06:43:04;;;;;;;3.70;2.63;;;;;;;4.79;100.00;100731.91;5088328;28;20187;-66
2023/11/21 06:45:33;;;;;;;3.20;2.20;;;;;;;4.82;100.00;100728.91;5083992;28;20250;-67
2023/11/21 06:48:02;;;;;;;3.38;1.65;;;;;;;4.90;100.00;100729.88;5103308;28;20187;-66
2023/11/21 06:50:32;;;;;;;2.30;1.42;;;;;;;5.00;100.00;100731.38;5100351;28;20190;-66
2023/11/21 06:53:03;;;;;;;3.10;1.90;;;;;;;4.96;100.00;100737.25;5096965;28;20561;-68
2023/11/21 06:55:33;;;;;;;2.75;1.58;;;;;;;5.02;100.00;100739.25;5093297;28;20594;-67
2023/11/21 06:58:05;;;;;;;2.50;1.63;;;;;;;4.97;100.00;100749.66;5094083;28;20660;-68
2023/11/21 07:00:34;;;;;;;4.03;2.92;;;;;;;4.95;100.00;100744.47;5093834;28;20187;-67
2023/11/21 07:03:03;;;;;;;3.28;2.20;;;;;;;4.93;100.00;100745.66;5095651;28;20233;-68
2023/11/21 07:05:32;;;;;;;3.55;1.92;;;;;;;4.95;100.00;100748.97;5093853;28;20203;-67
2023/11/21 07:08:04;;;;;;;5.25;2.47;;;;;;;5.01;100.00;100743.78;5089862;28;20198;-68
2023/11/21 07:10:34;;;;;;;5.55;4.85;;;;;;;5.00;100.00;100747.47;5100076;28;20198;-67
2023/11/21 07:13:05;;;;;;;8.38;4.13;;;;;;;4.98;100.00;100746.81;5093471;28;20202;-68
2023/11/21 07:15:34;;;;;;;7.80;7.00;;;;;;;4.93;100.00;100749.16;5100904;28;20187;-67
2023/11/21 07:18:03;;;;;;;6.90;3.20;;;;;;;4.96;100.00;100756.88;5085014;28;20206;-66
2023/11/21 07:20:33;;;;;;;9.77;6.63;;;;;;;4.90;100.00;100759.38;5087564;28;20188;-67
2023/11/21 07:23:03;;;;;;;16.75;10.95;;;;;;;4.84;100.00;100762.75;5093581;28;20281;-66
2023/11/21 07:25:33;;;;;;;5.55;4.95;;;;;;;4.79;100.00;100755.22;5088667;28;20230;-67
2023/11/21 07:28:05;;;;;;;6.28;5.47;;;;;;;4.80;100.00;100752.34;5091508;28;20188;-67
2023/11/21 07:30:34;;;;;;;31.40;20.33;;;;;;;4.88;100.00;100759.56;5089158;28;20198;-68
2023/11/21 07:33:03;;;;;;;7.30;5.93;;;;;;;4.81;100.00;100764.75;5092714;28;20195;-68
2023/11/21 07:35:32;;;;;;;5.45;4.10;;;;;;;4.86;100.00;100766.91;5092454;28;20233;-67
2023/11/21 07:38:00;;;;;;;8.77;5.50;;;;;;;4.77;100.00;100773.28;5093859;28;20190;-66
2023/11/21 07:40:29;;;;;;;5.00;4.15;;;;;;;4.86;100.00;100776.81;5093842;28;20318;-66
2023/11/21 07:42:59;;;;;;;3.10;2.33;;;;;;;4.82;100.00;100771.78;5095416;28;20214;-67
2023/11/21 07:45:31;;;;;;;4.85;2.95;;;;;;;4.90;100.00;100775.47;5074130;28;20634;-67
2023/11/21 07:48:00;;;;;;;5.70;3.92;;;;;;;4.89;100.00;100779.16;5078826;28;20252;-67
2023/11/21 07:50:29;;;;;;;8.38;6.32;;;;;;;4.94;100.00;100783.00;5085693;28;20219;-67
2023/11/21 07:52:59;;;;;;;5.40;5.00;;;;;;;5.03;100.00;100781.16;5100970;28;20379;-67
2023/11/21 07:55:32;;;;;;;9.07;5.32;;;;;;;4.98;100.00;100786.19;5074541;28;20278;-68
2023/11/21 07:58:01;;;;;;;7.80;4.00;;;;;;;4.96;100.00;100788.19;5092659;28;20183;-67
2023/11/21 08:00:31;;;;;;;7.35;3.60;;;;;;;4.95;100.00;100783.84;5069628;28;20582;-68
2023/11/21 08:03:00;;;;;;;8.88;3.85;;;;;;;5.04;100.00;100788.19;5088968;28;20191;-68
2023/11/21 08:05:29;;;;;;;4.97;2.70;;;;;;;4.97;100.00;100800.59;5087720;28;20605;-68
2023/11/21 08:08:05;;;;;;;2.22;2.05;;;;;;;4.87;100.00;100802.63;5092646;28;20195;-66
2023/11/21 08:10:35;;;;;;;3.05;2.70;;;;;;;4.77;100.00;100806.31;5094997;28;20301;-67
2023/11/21 08:13:04;;;;;;;2.80;1.90;;;;;;;4.76;100.00;100820.72;5074119;28;20192;-67
2023/11/21 08:15:36;;;;;;;5.20;2.60;;;;;;;4.70;100.00;100821.38;5085812;28;20184;-67
2023/11/21 08:18:07;;;;;;;2.72;2.20;;;;;;;4.64;100.00;100819.38;5090964;28;20240;-67
2023/11/21 08:20:38;;;;;;;2.55;1.75;;;;;;;4.68;100.00;100811.81;5093275;28;20188;-68
2023/11/21 08:23:07;;;;;;;3.10;2.10;;;;;;;4.67;100.00;100821.72;5086489;28;20248;-66
2023/11/21 08:25:37;;;;;;;3.20;2.25;;;;;;;4.70;100.00;100821.38;5096902;28;20188;-67
2023/11/21 08:28:05;;;;;;;6.07;2.55;;;;;;;4.70;100.00;100823.19;5096885;28;20187;-67
2023/11/21 08:30:36;;;;;;;2.72;1.10;;;;;;;4.77;100.00;100825.06;5087477;28;20274;-66
2023/11/21 08:33:05;;;;;;;1.50;1.10;;;;;;;4.81;100.00;100829.09;5097242;28;20194;-67
2023/11/21 08:35:34;;;;;;;2.25;1.70;;;;;;;4.88;100.00;100831.97;5083060;28;20194;-67
2023/11/21 08:38:03;;;;;;;2.55;2.03;;;;;;;4.89;100.00;100825.56;5096576;28;20669;-67
2023/11/21 08:40:32;;;;;;;2.92;2.58;;;;;;;4.89;100.00;100830.94;5077658;28;20195;-66
2023/11/21 08:43:04;;;;;;;6.20;1.98;;;;;;;5.02;100.00;100835.81;5094611;28;20183;-66
2023/11/21 08:45:35;;;;;;;3.85;2.15;;;;;;;4.97;100.00;100835.47;5090166;28;20192;-68
2023/11/21 08:48:04;;;;;;;3.10;1.95;;;;;;;4.98;100.00;100845.19;5096540;28;20183;-66
2023/11/21 08:50:34;;;;;;;3.80;2.35;;;;;;;5.09;100.00;100844.84;5095637;28;20268;-67
2023/11/21 08:53:02;;;;;;;2.08;1.88;;;;;;;5.07;100.00;100846.88;5094235;28;20187;-66
2023/11/21 08:55:31;;;;;;;6.40;2.13;;;;;;;5.03;100.00;100859.78;5092575;28;20187;-67
2023/11/21 08:58:00;;;;;;;1.20;1.10;;;;;;;4.82;100.00;100854.06;5096029;28;20240;-66
2023/11/21 09:00:29;;;;;;;3.50;1.65;;;;;;;4.83;100.00;100863.78;5100125;28;20188;-66
2023/11/21 09:02:59;;;;;;;2.08;1.70;;;;;;;4.77;100.00;100870.66;5100920;28;20178;-67
2023/11/21 09:05:28;;;;;;;3.88;1.80;;;;;;;4.69;100.00;100862.59;5091181;28;20187;-68
2023/11/21 09:07:57;;;;;;;3.92;1.60;;;;;;;4.77;100.00;100869.81;5086198;28;20207;-67
2023/11/21 09:10:28;;;;;;;5.97;1.70;;;;;;;4.83;100.00;100879.88;5095388;28;20221;-67
2023/11/21 09:12:57;;;;;;;2.92;2.20;;;;;;;4.77;100.00;100889.41;5108136;28;20194;-66
2023/11/21 09:15:26;;;;;;;2.40;1.52;;;;;;;4.68;100.00;100886.88;5078070;28;20286;-67
2023/11/21 09:17:56;;;;;;;2.67;1.90;;;;;;;4.76;100.00;100893.09;5086623;28;20534;-67
2023/11/21 09:20:26;;;;;;;4.65;2.50;;;;;;;4.69;100.00;100899.28;5089462;28;20196;-65
2023/11/21 09:22:56;;;;;;;2.85;1.73;;;;;;;4.71;100.00;100900.78;5099360;28;20202;-66
2023/11/21 09:25:25;;;;;;;3.78;2.45;;;;;;;4.92;100.00;100899.50;5093703;28;20219;-67
2023/11/21 09:27:54;;;;;;;3.92;2.72;;;;;;;4.95;100.00;100904.50;5095672;28;20562;-67
2023/11/21 09:30:24;;;;;;;4.30;1.75;;;;;;;5.06;100.00;100898.84;5100095;28;20195;-67
2023/11/21 09:32:53;;;;;;;2.90;2.22;;;;;;;4.95;100.00;100904.50;5095517;28;20233;-66
2023/11/21 09:35:22;;;;;;;7.70;3.50;;;;;;;4.96;100.00;100906.19;5096410;28;20210;-67
2023/11/21 09:37:53;;;;;;;3.67;2.20;;;;;;;4.80;100.00;100913.19;5101434;28;20215;-66
2023/11/21 09:40:23;;;;;;;4.82;4.38;;;;;;;4.91;100.00;100922.78;5094184;28;20271;-68
2023/11/21 09:42:57;;;;;;;4.65;2.88;;;;;;;4.92;100.00;100929.00;5095752;28;20187;-67
2023/11/21 09:45:31;;;;;;;3.25;1.95;;;;;;;4.82;100.00;100929.13;5095139;28;20188;-66
2023/11/21 09:48:01;;;;;;;6.22;4.22;;;;;;;4.71;100.00;100927.59;5098550;28;20222;-67
2023/11/21 09:50:33;;;;;;;3.95;3.00;;;;;;;4.60;100.00;100933.25;5077991;28;20295;-66
2023/11/21 09:53:16;;;;;;;5.05;3.40;;;;;;;4.50;100.00;100937.94;5089103;28;20272;-66
2023/11/21 09:55:47;;;;;;;5.32;2.33;;;;;;;4.40;100.00;100937.22;5089478;28;20191;-66
2023/11/21 09:58:16;;;;;;;6.30;5.22;;;;;;;4.50;100.00;100943.28;5092701;28;20627;-67
2023/11/21 10:00:47;;;;;;;10.75;3.58;;;;;;;4.54;100.00;100946.47;5092832;28;20272;-67
2023/11/21 10:03:16;;;;;;;13.35;3.35;;;;;;;4.48;100.00;100939.91;5099894;28;20201;-67
2023/11/21 10:05:46;;;;;;;3.25;2.42;;;;;;;4.40;100.00;100937.22;5084373;28;20675;-67
2023/11/21 10:08:16;;;;;;;6.88;3.15;;;;;;;4.49;100.00;100941.59;5095959;28;20207;-67
2023/11/21 10:10:47;;;;;;;6.88;2.92;;;;;;;4.48;100.00;100944.44;5095584;28;20723;-67
2023/11/21 10:13:19;;;;;;;5.05;3.67;;;;;;;4.40;100.00;100939.91;5095219;28;20206;-67
2023/11/21 10:15:52;;;;;;;7.45;4.07;;;;;;;4.41;100.00;100951.44;5080833;28;20194;-67
2023/11/21 10:18:25;;;;;;;5.28;2.30;;;;;;;4.41;100.00;100954.09;5095136;28;20211;-67
2023/11/21 10:20:55;;;;;;;5.03;1.58;;;;;;;4.44;100.00;100948.44;5099799;28;20188;-67
2023/11/21 10:23:26;;;;;;;5.72;2.30;;;;;;;4.37;100.00;100948.25;5095432;28;20215;-67
2023/11/21 10:25:55;;;;;;;3.63;1.55;;;;;;;4.30;100.00;100952.56;5103136;28;20270;-66
2023/11/21 10:28:30;;;;;;;6.30;2.83;;;;;;;4.21;100.00;100953.53;5103452;28;20768;-67
2023/11/21 10:30:59;;;;;;;3.35;3.08;;;;;;;4.21;100.00;100954.34;5095553;28;20693;-68
2023/11/21 10:33:32;;;;;;;15.25;11.85;;;;;;;4.13;100.00;100957.00;5096282;28;20223;-66
2023/11/21 10:36:02;;;;;;;4.43;2.40;;;;;;;4.19;100.00;100950.16;5095111;28;20199;-67
2023/11/21 10:38:43;;;;;;;4.38;3.90;;;;;;;4.21;100.00;100958.91;5095781;28;20190;-67
2023/11/21 10:41:15;;;;;;;11.30;6.90;;;;;;;4.31;100.00;100959.59;5084825;28;20214;-68
2023/11/21 10:43:45;;;;;;;6.25;5.60;;;;;;;4.35;100.00;100966.34;5099282;28;20734;-68
2023/11/21 10:46:15;;;;;;;7.40;3.53;;;;;;;4.46;100.00;100966.03;5093649;28;20194;-67
2023/11/21 10:48:44;;;;;;;4.07;3.78;;;;;;;4.31;100.00;100964.94;5097043;28;20221;-68
2023/11/21 10:51:13;;;;;;;8.98;5.70;;;;;;;4.27;100.00;100975.16;5093405;28;20664;-67
2023/11/21 10:53:43;;;;;;;6.43;5.38;;;;;;;4.29;100.00;100983.03;5097913;28;20218;-67
2023/11/21 10:56:18;;;;;;;5.93;3.08;;;;;;;4.22;100.00;100977.47;5101066;28;20187;-67
2023/11/21 10:58:49;;;;;;;1.60;1.45;;;;;;;4.23;100.00;100989.03;5095362;28;20233;-67
2023/11/21 11:01:21;;;;;;;3.38;1.15;;;;;;;4.10;100.00;100991.28;5093674;28;20191;-68
2023/11/21 11:03:54;;;;;;;1.40;1.30;;;;;;;4.00;100.00;100982.53;5093198;28;20230;-68
2023/11/21 11:06:27;;;;;;;3.00;1.75;;;;;;;3.89;100.00;100992.50;5094082;28;20191;-68
2023/11/21 11:08:57;;;;;;;4.07;2.60;;;;;;;3.84;100.00;100981.41;5085068;28;20222;-68
2023/11/21 11:11:27;;;;;;;1.83;1.20;;;;;;;3.86;100.00;100992.81;5091843;28;20198;-67
2023/11/21 11:13:58;;;;;;;2.75;1.75;;;;;;;3.79;100.00;100991.75;5072166;28;20219;-67
2023/11/21 11:16:28;;;;;;;2.08;1.35;;;;;;;3.77;100.00;100999.13;5092455;28;20191;-67
2023/11/21 11:18:57;;;;;;;2.47;1.42;;;;;;;3.74;100.00;100994.06;5089517;28;20201;-68
2023/11/21 11:21:46;;;;;;;2.72;1.92;;;;;;;3.68;100.00;100999.19;5093547;28;20218;-66
2023/11/21 11:24:28;;;;;;;7.65;1.23;;;;;;;3.69;100.00;100993.69;5090931;28;20708;-66
2023/11/21 11:27:03;;;;;;;3.55;1.33;;;;;;;3.64;100.00;101009.34;5096914;28;20206;-67
2023/11/21 11:29:40;;;;;;;1.33;1.23;;;;;;;3.58;100.00;100999.28;5099298;28;20672;-67
2023/11/21 11:32:22;;;;;;;1.20;1.02;;;;;;;3.70;100.00;101011.41;5091247;28;20676;-67
2023/11/21 11:35:02;;;;;;;2.65;2.45;;;;;;;3.76;100.00;101012.63;5093661;28;20218;-68
2023/11/21 11:37:31;;;;;;;2.60;1.00;;;;;;;3.83;100.00;101013.69;5106658;28;20183;-67
2023/11/21 11:40:01;;;;;;;1.83;1.00;;;;;;;3.92;100.00;101024.31;5093615;28;20198;-66